Time;durP1;ratioP1;P1;durP2;ratioP2;P2;SDS_P1;SDS_P2;PMS_P1;PMS_P2;Temp;Humidity;BMP_temperature;BMP_pressure;BME280_temperature;BME280_humidity;BME280_pressure;Samples;Min_cycle;Max_cycle;Signal;HPM_P1;HPM_P2
2021/04/10 00:00:46;;;;;;;4.90;2.03;;;13.20;58.60;;;;;;4971512;28;20446;-57
2021/04/10 00:03:14;;;;;;;2.33;1.77;;;13.20;58.60;;;;;;4973137;28;20580;-56
2021/04/10 00:05:41;;;;;;;6.70;1.90;;;13.10;58.60;;;;;;4965616;28;20450;-56
2021/04/10 00:08:08;;;;;;;5.60;2.20;;;13.20;58.60;;;;;;4962481;28;20432;-55
2021/04/10 00:10:35;;;;;;;2.60;1.70;;;13.10;58.50;;;;;;4965151;28;20510;-57
2021/04/10 00:13:02;;;;;;;4.77;1.50;;;13.20;58.60;;;;;;4965789;28;20467;-55
2021/04/10 00:15:29;;;;;;;4.47;2.07;;;13.20;58.60;;;;;;4963062;28;20440;-57
2021/04/10 00:17:56;;;;;;;3.93;1.60;;;13.20;58.60;;;;;;4966359;28;20449;-56
2021/04/10 00:20:24;;;;;;;3.80;2.23;;;13.20;58.60;;;;;;4964750;28;20470;-57
2021/04/10 00:22:51;;;;;;;10.37;2.67;;;13.10;58.60;;;;;;4962697;28;20467;-55
2021/04/10 00:25:19;;;;;;;2.80;1.70;;;13.10;58.70;;;;;;4965395;28;20472;-57
2021/04/10 00:27:46;;;;;;;2.03;1.70;;;13.10;58.70;;;;;;4962812;28;20435;-56
2021/04/10 00:30:14;;;;;;;3.63;1.80;;;13.00;58.80;;;;;;4965188;28;20528;-55
2021/04/10 00:32:41;;;;;;;3.87;1.60;;;13.10;58.90;;;;;;4963021;28;20507;-56
2021/04/10 00:35:09;;;;;;;2.30;1.80;;;13.10;58.90;;;;;;4962333;28;20522;-57
2021/04/10 00:37:37;;;;;;;2.03;1.80;;;13.10;58.90;;;;;;4965320;28;20435;-53
2021/04/10 00:40:04;;;;;;;4.40;1.67;;;13.10;59.00;;;;;;4962473;28;20522;-57
2021/04/10 00:42:31;;;;;;;3.17;1.77;;;13.10;59.00;;;;;;4964437;28;20469;-55
2021/04/10 00:44:58;;;;;;;3.77;2.00;;;13.00;59.10;;;;;;4961796;28;20661;-57
2021/04/10 00:47:25;;;;;;;3.30;1.90;;;13.00;59.10;;;;;;4962246;28;20471;-57
2021/04/10 00:49:52;;;;;;;4.33;2.00;;;13.00;59.20;;;;;;4963555;28;20454;-54
2021/04/10 00:52:19;;;;;;;1.90;1.77;;;12.90;59.20;;;;;;4961804;28;20451;-53
2021/04/10 00:54:47;;;;;;;4.63;2.00;;;13.00;59.20;;;;;;4962305;28;20441;-56
2021/04/10 00:57:14;;;;;;;1.73;1.60;;;13.00;59.10;;;;;;4973224;28;20510;-56
2021/04/10 00:59:41;;;;;;;2.30;1.67;;;13.00;59.20;;;;;;4973143;28;20482;-55
2021/04/10 01:02:09;;;;;;;2.03;1.83;;;12.90;59.10;;;;;;4972954;28;20489;-54
2021/04/10 01:04:37;;;;;;;3.17;2.13;;;12.90;59.10;;;;;;4972879;28;20474;-54
2021/04/10 01:07:04;;;;;;;3.17;2.07;;;12.90;59.10;;;;;;4972800;28;20466;-57
2021/04/10 01:09:31;;;;;;;3.13;1.97;;;12.90;59.20;;;;;;4973174;28;20470;-55
2021/04/10 01:12:05;;;;;;;6.13;2.00;;;12.90;59.20;;;;;;4973126;28;20505;-54
2021/04/10 01:14:37;;;;;;;2.87;1.87;;;12.90;59.30;;;;;;4972783;28;20510;-53
2021/04/10 01:17:07;;;;;;;2.20;1.63;;;12.90;59.30;;;;;;4972389;28;20454;-53
2021/04/10 01:20:00;;;;;;;4.67;1.83;;;12.90;59.30;;;;;;4972781;28;20438;-57
2021/04/10 01:22:37;;;;;;;3.37;1.70;;;12.90;59.40;;;;;;4972993;28;20578;-53
2021/04/10 01:25:04;;;;;;;3.90;1.93;;;12.80;59.30;;;;;;4972842;28;20573;-54
2021/04/10 01:27:39;;;;;;;3.27;1.70;;;12.80;59.30;;;;;;4972826;28;20469;-52
2021/04/10 01:30:09;;;;;;;4.93;2.13;;;12.80;59.30;;;;;;4972852;28;20435;-57
2021/04/10 01:32:39;;;;;;;3.27;2.00;;;12.80;59.40;;;;;;4972510;28;20591;-57
2021/04/10 01:35:07;;;;;;;6.47;2.07;;;12.80;59.30;;;;;;4972234;28;20553;-54
2021/04/10 01:37:36;;;;;;;2.63;1.90;;;12.80;59.40;;;;;;4972999;28;20503;-52
2021/04/10 01:40:05;;;;;;;5.03;1.73;;;12.80;59.40;;;;;;4972680;28;20446;-56
2021/04/10 01:42:32;;;;;;;2.90;1.87;;;12.80;59.50;;;;;;4972399;28;20452;-53
2021/04/10 01:45:00;;;;;;;1.87;1.67;;;12.80;59.50;;;;;;4972362;28;20521;-56
2021/04/10 01:47:27;;;;;;;2.07;1.87;;;12.70;59.50;;;;;;4972617;28;20537;-55
2021/04/10 01:49:54;;;;;;;4.17;1.60;;;12.70;59.60;;;;;;4973064;28;20459;-54
2021/04/10 01:52:21;;;;;;;2.90;1.93;;;12.70;59.60;;;;;;4972908;28;20501;-56
2021/04/10 01:54:48;;;;;;;5.20;2.10;;;12.70;59.50;;;;;;4972536;28;20446;-57
2021/04/10 01:57:15;;;;;;;2.87;1.67;;;12.70;59.50;;;;;;4972920;28;20448;-55
2021/04/10 01:59:42;;;;;;;2.93;1.27;;;12.70;59.50;;;;;;4972738;28;20569;-55
2021/04/10 02:02:10;;;;;;;2.43;1.50;;;12.70;59.70;;;;;;4972557;28;20442;-57
2021/04/10 02:04:40;;;;;;;2.53;1.73;;;12.70;59.50;;;;;;4972382;28;20478;-57
2021/04/10 02:07:07;;;;;;;1.63;1.53;;;12.70;59.50;;;;;;4967769;28;20517;-55
2021/04/10 02:09:33;;;;;;;2.63;2.17;;;12.70;59.60;;;;;;4972632;28;20537;-52
2021/04/10 02:12:00;;;;;;;2.30;1.83;;;12.60;59.50;;;;;;4972561;28;20474;-57
2021/04/10 02:14:28;;;;;;;3.33;1.87;;;12.70;59.60;;;;;;4972244;28;20434;-55
2021/04/10 02:16:54;;;;;;;4.10;1.73;;;12.60;59.50;;;;;;4972792;28;20513;-54
2021/04/10 02:19:21;;;;;;;10.90;1.97;;;12.60;59.60;;;;;;4972553;28;20434;-57
2021/04/10 02:21:49;;;;;;;1.80;1.70;;;12.60;59.60;;;;;;4972114;28;20498;-53
2021/04/10 02:24:16;;;;;;;2.10;1.73;;;12.60;59.60;;;;;;4972022;28;20478;-55
2021/04/10 02:26:43;;;;;;;4.17;1.93;;;12.60;59.60;;;;;;4972256;28;20534;-54
2021/04/10 02:29:10;;;;;;;2.87;1.63;;;12.60;59.70;;;;;;4972037;28;20450;-56
2021/04/10 02:31:39;;;;;;;4.87;1.87;;;12.60;59.70;;;;;;4972609;28;20530;-56
2021/04/10 02:34:13;;;;;;;2.50;1.90;;;12.60;59.70;;;;;;4975626;28;20437;-56
2021/04/10 02:36:40;;;;;;;3.47;2.03;;;12.60;59.70;;;;;;4976050;28;20553;-57
2021/04/10 02:39:08;;;;;;;2.47;1.73;;;12.60;59.70;;;;;;4975814;28;20436;-56
2021/04/10 02:41:35;;;;;;;2.83;1.87;;;12.60;59.70;;;;;;4975498;28;20488;-57
2021/04/10 02:44:03;;;;;;;3.00;2.13;;;12.60;59.70;;;;;;4975751;28;20543;-53
2021/04/10 02:46:34;;;;;;;13.90;1.83;;;12.50;59.70;;;;;;4975402;28;20484;-57
2021/04/10 02:49:02;;;;;;;3.73;1.87;;;12.60;59.70;;;;;;4975402;28;20446;-56
2021/04/10 02:51:30;;;;;;;1.80;1.57;;;12.50;59.80;;;;;;4975556;28;20561;-57
2021/04/10 02:53:56;;;;;;;1.73;1.60;;;12.50;59.80;;;;;;4975327;28;20457;-57
2021/04/10 02:56:27;;;;;;;1.60;1.50;;;12.50;59.80;;;;;;4975063;28;20529;-57
2021/04/10 02:58:54;;;;;;;2.40;2.03;;;12.50;59.90;;;;;;4975527;28;20442;-57
2021/04/10 03:01:21;;;;;;;2.10;1.63;;;12.50;59.90;;;;;;4975534;28;20507;-57
2021/04/10 03:03:48;;;;;;;1.73;1.43;;;12.40;59.90;;;;;;4975053;28;20477;-57
2021/04/10 03:06:15;;;;;;;3.63;2.03;;;12.50;60.00;;;;;;4973487;28;20482;-55
2021/04/10 03:08:41;;;;;;;2.37;1.40;;;12.50;60.00;;;;;;4973945;28;20469;-54
2021/04/10 03:11:08;;;;;;;2.50;1.57;;;12.50;59.80;;;;;;4975320;28;20473;-56
2021/04/10 03:13:36;;;;;;;1.67;1.57;;;12.50;60.00;;;;;;4981595;28;20511;-54
2021/04/10 03:16:03;;;;;;;3.27;1.73;;;12.40;60.00;;;;;;4969149;28;20510;-53
2021/04/10 03:18:30;;;;;;;3.93;1.70;;;12.40;60.10;;;;;;4975107;28;20530;-56
2021/04/10 03:20:57;;;;;;;2.07;1.60;;;12.40;60.10;;;;;;4965170;28;20554;-52
2021/04/10 03:23:24;;;;;;;2.20;1.53;;;12.40;60.10;;;;;;4955589;28;20487;-55
2021/04/10 03:25:51;;;;;;;6.47;1.80;;;12.40;60.00;;;;;;4955913;28;20534;-53
2021/04/10 03:28:18;;;;;;;3.27;1.60;;;12.40;60.00;;;;;;4955881;28;20447;-55
2021/04/10 03:30:47;;;;;;;2.30;1.73;;;12.40;60.00;;;;;;4955896;28;20486;-53
2021/04/10 03:33:13;;;;;;;3.13;1.40;;;12.40;60.10;;;;;;4955580;28;20490;-54
2021/04/10 03:35:40;;;;;;;5.17;1.93;;;12.30;60.00;;;;;;4955027;28;20546;-55
2021/04/10 03:38:07;;;;;;;5.07;2.00;;;12.40;60.10;;;;;;4955276;28;20474;-56
2021/04/10 03:40:34;;;;;;;3.33;1.60;;;12.40;60.10;;;;;;4955636;28;20516;-56
2021/04/10 03:43:01;;;;;;;4.40;1.70;;;12.30;60.00;;;;;;4955328;28;20471;-53
2021/04/10 03:45:27;;;;;;;2.90;1.20;;;12.40;60.10;;;;;;4955477;28;20510;-57
2021/04/10 03:47:56;;;;;;;1.40;1.30;;;12.40;60.10;;;;;;4955599;28;20493;-56
2021/04/10 03:50:23;;;;;;;2.10;1.40;;;12.30;60.10;;;;;;4955245;28;20470;-53
2021/04/10 03:52:50;;;;;;;1.97;1.60;;;12.30;60.10;;;;;;4955479;28;20463;-54
2021/04/10 03:55:16;;;;;;;4.33;1.67;;;12.30;60.10;;;;;;4955136;28;20443;-51
2021/04/10 03:57:43;;;;;;;3.60;1.43;;;12.30;60.10;;;;;;4955389;28;20526;-56
2021/04/10 04:00:11;;;;;;;2.87;1.80;;;12.30;60.20;;;;;;4955092;28;20513;-55
2021/04/10 04:02:38;;;;;;;4.13;1.97;;;12.30;60.20;;;;;;4955170;28;20439;-56
2021/04/10 04:05:07;;;;;;;2.90;1.50;;;12.30;60.30;;;;;;4954576;28;20479;-53
2021/04/10 04:07:34;;;;;;;2.00;1.60;;;12.30;60.30;;;;;;4955225;28;20471;-52
2021/04/10 04:10:01;;;;;;;1.50;1.40;;;12.30;60.30;;;;;;4955278;28;20506;-54
2021/04/10 04:12:28;;;;;;;4.10;1.63;;;12.30;60.20;;;;;;4954838;28;20458;-51
2021/04/10 04:14:55;;;;;;;3.00;1.30;;;12.30;60.20;;;;;;4954589;28;20447;-54
2021/04/10 04:17:22;;;;;;;3.93;1.90;;;12.20;60.20;;;;;;4954702;28;20451;-57
2021/04/10 04:19:49;;;;;;;3.93;1.77;;;12.20;60.20;;;;;;4955047;28;20455;-55
2021/04/10 04:22:16;;;;;;;4.17;1.70;;;12.20;60.40;;;;;;4949967;28;20502;-53
2021/04/10 04:24:43;;;;;;;2.60;1.80;;;12.20;60.30;;;;;;4954542;28;20522;-53
2021/04/10 04:27:10;;;;;;;3.57;1.43;;;12.20;60.30;;;;;;4954819;28;20497;-58
2021/04/10 04:29:39;;;;;;;4.90;1.40;;;12.20;60.30;;;;;;4954771;28;20439;-53
2021/04/10 04:32:07;;;;;;;2.57;1.70;;;12.20;60.40;;;;;;4954628;28;20443;-56
2021/04/10 04:34:35;;;;;;;4.83;2.10;;;12.20;60.40;;;;;;4954104;28;20467;-54
2021/04/10 04:37:02;;;;;;;3.33;1.50;;;12.20;60.40;;;;;;4954530;28;20502;-57
2021/04/10 04:39:30;;;;;;;2.87;1.53;;;12.20;60.40;;;;;;4954605;28;20479;-57
2021/04/10 04:41:58;;;;;;;6.43;2.13;;;12.20;60.50;;;;;;4954964;28;20593;-57
2021/04/10 04:44:25;;;;;;;2.03;1.20;;;12.20;60.50;;;;;;4953925;28;20506;-57
2021/04/10 04:46:51;;;;;;;1.40;1.30;;;12.20;60.40;;;;;;4954323;28;20446;-57
2021/04/10 04:49:18;;;;;;;3.00;1.40;;;12.10;60.40;;;;;;4954357;28;20447;-57
2021/04/10 04:51:45;;;;;;;3.00;1.67;;;12.20;60.50;;;;;;4954475;28;20554;-57
2021/04/10 04:54:12;;;;;;;2.17;1.53;;;12.20;60.50;;;;;;4954275;28;20478;-56
2021/04/10 04:56:39;;;;;;;1.83;1.50;;;12.20;60.50;;;;;;4953927;28;20447;-53
2021/04/10 04:59:06;;;;;;;2.87;1.30;;;12.20;60.40;;;;;;4954440;28;20467;-55
2021/04/10 05:01:33;;;;;;;2.83;1.53;;;12.20;60.40;;;;;;4954399;28;20538;-56
2021/04/10 05:04:00;;;;;;;3.97;1.40;;;12.10;60.40;;;;;;4954320;28;20475;-55
2021/04/10 05:06:27;;;;;;;1.87;1.10;;;12.10;60.40;;;;;;4953880;28;20475;-54
2021/04/10 05:08:54;;;;;;;3.37;1.80;;;12.10;60.50;;;;;;4954226;28;20483;-54
2021/04/10 05:11:21;;;;;;;1.77;1.67;;;12.10;60.60;;;;;;4954145;28;20498;-56
2021/04/10 05:13:48;;;;;;;2.20;1.47;;;12.10;60.60;;;;;;4954307;28;20530;-57
2021/04/10 05:16:15;;;;;;;1.40;1.17;;;12.10;60.60;;;;;;4953493;28;20478;-54
2021/04/10 05:18:42;;;;;;;1.50;1.40;;;12.10;60.60;;;;;;4954079;28;20447;-57
2021/04/10 05:21:08;;;;;;;4.27;1.40;;;12.10;60.60;;;;;;4953910;28;20554;-55
2021/04/10 05:23:37;;;;;;;1.63;1.53;;;12.10;60.60;;;;;;4953807;28;20538;-54
2021/04/10 05:26:03;;;;;;;3.00;1.50;;;12.10;60.70;;;;;;4953423;28;20521;-53
2021/04/10 05:28:30;;;;;;;2.80;1.60;;;12.00;60.60;;;;;;4953979;28;20654;-55
2021/04/10 05:31:01;;;;;;;2.03;1.63;;;12.00;60.60;;;;;;4953955;28;20556;-55
2021/04/10 05:33:28;;;;;;;3.00;1.43;;;12.10;60.70;;;;;;4954073;28;20490;-53
2021/04/10 05:35:56;;;;;;;1.87;1.30;;;12.10;60.60;;;;;;4952560;28;20468;-57
2021/04/10 05:38:23;;;;;;;2.73;1.60;;;12.10;60.60;;;;;;4952189;28;20513;-53
2021/04/10 05:40:51;;;;;;;5.60;1.60;;;12.10;60.60;;;;;;4953270;28;20439;-57
2021/04/10 05:43:18;;;;;;;2.80;1.50;;;12.10;60.60;;;;;;4953647;28;20447;-57
2021/04/10 05:45:44;;;;;;;1.77;1.37;;;12.10;60.60;;;;;;4975506;28;20470;-52
2021/04/10 05:48:12;;;;;;;2.20;1.40;;;12.10;60.60;;;;;;4965898;28;20485;-55
2021/04/10 05:50:39;;;;;;;2.63;1.43;;;12.10;60.60;;;;;;4960921;28;20485;-57
2021/04/10 05:53:06;;;;;;;1.77;1.13;;;12.10;60.60;;;;;;4953862;28;20440;-56
2021/04/10 05:55:32;;;;;;;2.90;1.53;;;12.10;60.60;;;;;;4953323;28;20516;-51
2021/04/10 05:57:59;;;;;;;2.17;1.50;;;12.10;60.60;;;;;;4953917;28;20583;-55
2021/04/10 06:00:26;;;;;;;1.43;1.33;;;12.10;60.60;;;;;;4953379;28;20474;-56
2021/04/10 06:02:53;;;;;;;2.20;1.60;;;12.10;60.60;;;;;;4953347;28;20545;-51
2021/04/10 06:05:21;;;;;;;2.10;1.30;;;12.10;60.60;;;;;;4953016;28;20475;-54
2021/04/10 06:07:48;;;;;;;3.13;1.50;;;12.10;60.60;;;;;;4952857;28;20545;-52
2021/04/10 06:10:16;;;;;;;1.20;1.10;;;12.10;60.60;;;;;;4953592;28;20479;-51
2021/04/10 06:12:43;;;;;;;3.23;1.50;;;12.10;60.50;;;;;;4953088;29;20514;-55
2021/04/10 06:15:11;;;;;;;1.93;1.30;;;12.10;60.60;;;;;;4953325;28;20471;-57
2021/04/10 06:17:37;;;;;;;5.40;1.57;;;12.10;60.60;;;;;;4953099;28;20499;-57
2021/04/10 06:20:05;;;;;;;2.67;1.40;;;12.10;60.60;;;;;;4953053;28;20436;-51
2021/04/10 06:22:37;;;;;;;1.60;1.17;;;12.20;60.60;;;;;;4953032;28;20521;-55
2021/04/10 06:25:06;;;;;;;1.43;1.33;;;12.20;60.60;;;;;;4952883;28;20493;-57
2021/04/10 06:27:33;;;;;;;1.23;1.10;;;12.20;60.40;;;;;;4953344;28;20462;-55
2021/04/10 06:30:00;;;;;;;2.27;1.50;;;12.20;60.40;;;;;;4953253;28;20494;-52
2021/04/10 06:32:27;;;;;;;1.47;1.37;;;12.20;60.40;;;;;;4953214;28;20471;-57
2021/04/10 06:34:54;;;;;;;1.50;1.40;;;12.30;60.50;;;;;;4952643;28;20450;-55
2021/04/10 06:37:20;;;;;;;2.53;1.23;;;12.30;60.30;;;;;;4952825;28;20468;-56
2021/04/10 06:39:48;;;;;;;2.30;1.40;;;12.40;60.30;;;;;;4952898;28;20447;-54
2021/04/10 06:42:15;;;;;;;4.40;1.50;;;12.40;60.10;;;;;;4952980;28;20470;-55
2021/04/10 06:44:42;;;;;;;1.67;1.40;;;12.50;60.10;;;;;;4952662;28;20503;-55
2021/04/10 06:47:08;;;;;;;3.10;1.50;;;12.50;60.00;;;;;;4952801;28;20465;-55
2021/04/10 06:49:35;;;;;;;1.60;1.40;;;12.50;60.00;;;;;;4953001;28;20530;-55
2021/04/10 06:52:03;;;;;;;2.43;1.40;;;12.50;60.00;;;;;;4952982;28;20471;-54
2021/04/10 06:54:31;;;;;;;2.43;1.43;;;12.50;59.90;;;;;;4952506;28;20471;-53
2021/04/10 06:57:04;;;;;;;2.10;1.23;;;12.50;60.00;;;;;;4952026;28;20451;-52
2021/04/10 06:59:37;;;;;;;5.10;1.73;;;12.60;60.10;;;;;;4952388;28;20493;-56
2021/04/10 07:02:07;;;;;;;2.13;1.33;;;12.60;60.00;;;;;;4971573;28;20464;-55
2021/04/10 07:04:34;;;;;;;2.23;1.27;;;12.60;60.00;;;;;;4971704;28;20478;-55
2021/04/10 07:07:01;;;;;;;1.40;1.30;;;12.60;60.00;;;;;;4961698;28;20443;-57
2021/04/10 07:09:28;;;;;;;2.00;1.30;;;12.70;60.00;;;;;;4952750;28;20482;-52
2021/04/10 07:11:55;;;;;;;1.40;1.20;;;12.70;60.00;;;;;;4952401;28;20451;-56
2021/04/10 07:14:23;;;;;;;2.30;1.43;;;12.70;59.90;;;;;;4952183;28;20471;-55
2021/04/10 07:16:50;;;;;;;1.27;1.17;;;12.80;59.90;;;;;;4952566;28;20448;-54
2021/04/10 07:19:17;;;;;;;2.63;1.10;;;12.80;59.90;;;;;;4954962;28;20471;-55
2021/04/10 07:21:44;;;;;;;2.17;1.50;;;12.80;59.90;;;;;;4955961;28;20542;-56
2021/04/10 07:24:10;;;;;;;1.27;1.17;;;12.80;59.80;;;;;;4955723;28;20439;-54
2021/04/10 07:26:48;;;;;;;3.20;1.47;;;12.80;59.90;;;;;;4955702;28;20446;-54
2021/04/10 07:29:32;;;;;;;1.17;1.03;;;12.90;59.80;;;;;;4955831;28;20457;-55
2021/04/10 07:31:59;;;;;;;2.50;1.10;;;12.90;59.80;;;;;;4956061;28;20443;-57
2021/04/10 07:34:26;;;;;;;6.20;1.50;;;13.00;59.80;;;;;;4955388;28;20467;-57
2021/04/10 07:37:03;;;;;;;2.30;1.30;;;13.00;59.70;;;;;;4955618;28;20478;-57
2021/04/10 07:39:30;;;;;;;2.03;1.17;;;13.00;59.60;;;;;;4955331;28;20442;-55
2021/04/10 07:42:00;;;;;;;2.80;1.30;;;13.10;60.20;;;;;;4955419;28;20461;-54
2021/04/10 07:44:38;;;;;;;1.40;1.13;;;13.10;59.50;;;;;;4955081;28;20542;-57
2021/04/10 07:47:07;;;;;;;1.93;1.40;;;13.20;59.50;;;;;;4955581;28;20455;-55
2021/04/10 07:49:34;;;;;;;1.20;1.00;;;13.20;59.50;;;;;;4955367;28;20466;-57
2021/04/10 07:52:04;;;;;;;1.53;1.23;;;13.20;59.50;;;;;;4955180;28;20451;-55
2021/04/10 07:54:31;;;;;;;2.83;1.20;;;13.30;59.40;;;;;;4955049;28;20585;-57
2021/04/10 07:56:59;;;;;;;3.63;1.17;;;13.30;59.40;;;;;;4954914;28;20439;-57
2021/04/10 07:59:30;;;;;;;2.03;1.30;;;13.40;59.30;;;;;;4955397;28;20443;-55
2021/04/10 08:02:11;;;;;;;1.83;1.20;;;13.50;59.20;;;;;;4955888;28;20471;-57
2021/04/10 08:04:39;;;;;;;4.03;1.10;;;13.50;59.20;;;;;;4954802;28;20478;-55
2021/04/10 08:07:07;;;;;;;1.50;1.33;;;13.50;59.10;;;;;;4955453;28;20439;-51
2021/04/10 08:09:35;;;;;;;1.20;1.10;;;13.70;59.10;;;;;;4955316;28;20477;-55
2021/04/10 08:12:06;;;;;;;1.77;1.50;;;13.70;59.00;;;;;;4954945;28;20461;-55
2021/04/10 08:14:40;;;;;;;1.30;1.17;;;13.80;58.90;;;;;;4954843;28;20512;-54
2021/04/10 08:17:07;;;;;;;2.67;1.40;;;13.90;58.80;;;;;;4954620;28;20508;-52
2021/04/10 08:19:35;;;;;;;2.60;1.23;;;14.00;58.80;;;;;;4955133;28;20474;-55
2021/04/10 08:22:03;;;;;;;2.43;1.30;;;14.10;58.60;;;;;;4955029;28;20443;-57
2021/04/10 08:24:38;;;;;;;1.10;1.00;;;14.20;58.40;;;;;;4954930;28;20443;-55
2021/04/10 08:27:06;;;;;;;1.60;1.10;;;14.40;58.20;;;;;;4954808;28;20497;-55
2021/04/10 08:29:34;;;;;;;2.00;1.23;;;14.40;58.10;;;;;;4953912;28;20458;-57
2021/04/10 08:32:01;;;;;;;1.23;1.13;;;14.50;58.00;;;;;;4955038;28;20463;-56
2021/04/10 08:34:29;;;;;;;2.47;1.30;;;14.60;57.90;;;;;;4954634;28;20450;-55
2021/04/10 08:36:57;;;;;;;2.03;1.10;;;14.90;57.70;;;;;;4954904;28;20447;-58
2021/04/10 08:39:30;;;;;;;1.30;1.20;;;15.10;57.20;;;;;;4954879;28;20508;-56
2021/04/10 08:41:57;;;;;;;1.77;1.13;;;15.40;56.80;;;;;;4954433;28;20526;-57
2021/04/10 08:44:28;;;;;;;2.00;1.40;;;15.60;56.50;;;;;;4954571;28;20478;-58
2021/04/10 08:46:55;;;;;;;2.87;1.30;;;15.70;56.40;;;;;;4954125;28;20530;-57
2021/04/10 08:49:22;;;;;;;2.30;1.47;;;15.80;56.40;;;;;;4954410;28;20447;-56
2021/04/10 08:51:52;;;;;;;1.90;1.17;;;15.80;56.20;;;;;;4954532;28;20455;-56
2021/04/10 08:54:21;;;;;;;2.30;1.37;;;16.00;56.20;;;;;;4954171;28;20447;-55
2021/04/10 08:56:51;;;;;;;2.73;1.13;;;16.30;55.70;;;;;;4949389;28;20463;-53
2021/04/10 08:59:19;;;;;;;1.87;1.10;;;16.50;55.50;;;;;;4954812;28;20482;-57
2021/04/10 09:02:05;;;;;;;1.40;1.13;;;16.60;55.40;;;;;;4954171;28;20489;-57
2021/04/10 09:05:09;;;;;;;1.53;1.27;;;16.70;55.10;;;;;;4953989;28;20454;-58
2021/04/10 09:08:06;;;;;;;3.67;1.27;;;16.80;55.00;;;;;;4953846;28;20451;-58
2021/04/10 09:11:03;;;;;;;3.10;1.20;;;16.80;55.00;;;;;;4953797;28;20451;-57
2021/04/10 09:13:48;;;;;;;2.37;1.20;;;16.70;55.20;;;;;;4954273;28;20528;-58
2021/04/10 09:16:37;;;;;;;1.50;1.40;;;16.60;55.20;;;;;;4953715;28;20492;-58
2021/04/10 09:19:12;;;;;;;1.30;1.00;;;16.50;55.60;;;;;;4953942;28;20477;-58
2021/04/10 09:21:44;;;;;;;2.40;1.20;;;16.50;55.60;;;;;;4953869;28;20471;-58
2021/04/10 09:24:28;;;;;;;1.00;0.90;;;16.90;55.20;;;;;;4953685;28;20455;-58
2021/04/10 09:26:58;;;;;;;2.00;1.20;;;17.00;54.90;;;;;;4953740;28;20451;-58
2021/04/10 09:29:25;;;;;;;3.30;1.33;;;17.20;54.70;;;;;;4953647;28;20467;-58
2021/04/10 09:31:56;;;;;;;1.40;1.30;;;17.30;54.60;;;;;;4954051;28;20527;-58
2021/04/10 09:34:52;;;;;;;1.43;1.10;;;17.40;54.30;;;;;;4953509;28;20443;-59
2021/04/10 09:37:57;;;;;;;1.73;1.10;;;17.60;54.20;;;;;;4953586;28;20441;-58
2021/04/10 09:40:25;;;;;;;6.00;1.40;;;17.60;53.90;;;;;;4953571;28;20448;-58
2021/04/10 09:42:54;;;;;;;2.10;1.20;;;17.70;54.00;;;;;;4953450;28;20451;-58
2021/04/10 09:45:29;;;;;;;3.47;1.30;;;17.70;54.10;;;;;;4953432;28;20502;-58
2021/04/10 09:48:18;;;;;;;2.57;1.30;;;17.60;54.10;;;;;;4953417;28;20439;-58
2021/04/10 09:50:45;;;;;;;2.33;1.20;;;17.70;54.10;;;;;;4960475;28;20450;-59
2021/04/10 09:53:13;;;;;;;3.47;1.40;;;17.70;53.90;;;;;;4972784;28;20518;-58
2021/04/10 09:55:41;;;;;;;1.37;1.00;;;17.60;54.10;;;;;;4969462;28;20461;-58
2021/04/10 09:58:09;;;;;;;3.60;1.23;;;17.60;54.10;;;;;;4972486;28;20458;-59
2021/04/10 10:00:36;;;;;;;1.97;1.50;;;17.70;54.20;;;;;;4972799;28;20533;-59
2021/04/10 10:03:06;;;;;;;4.10;1.33;;;17.60;54.30;;;;;;4972661;28;20443;-58
2021/04/10 10:05:34;;;;;;;1.43;1.30;;;17.50;54.40;;;;;;4972216;28;20502;-59
2021/04/10 10:08:02;;;;;;;2.00;1.10;;;17.40;54.60;;;;;;4972844;28;20443;-59
2021/04/10 10:10:32;;;;;;;3.00;1.50;;;17.40;54.90;;;;;;4972401;28;20442;-58
2021/04/10 10:13:03;;;;;;;1.90;1.20;;;17.30;54.70;;;;;;4972331;28;20441;-58
2021/04/10 10:15:31;;;;;;;5.90;1.40;;;17.50;54.70;;;;;;4971979;28;20512;-59
2021/04/10 10:17:58;;;;;;;2.37;1.37;;;17.90;54.20;;;;;;4972080;28;20489;-59
2021/04/10 10:20:25;;;;;;;1.77;1.27;;;18.10;53.50;;;;;;4972386;28;20434;-59
2021/04/10 10:22:52;;;;;;;1.63;1.20;;;18.20;53.50;;;;;;4972177;28;20527;-59
2021/04/10 10:25:18;;;;;;;1.90;1.57;;;18.10;53.70;;;;;;4971922;28;20570;-58
2021/04/10 10:27:46;;;;;;;1.63;1.27;;;17.90;54.10;;;;;;4972153;28;20445;-58
2021/04/10 10:30:14;;;;;;;1.73;1.20;;;17.80;54.40;;;;;;4972178;28;20545;-58
2021/04/10 10:32:47;;;;;;;4.40;1.30;;;17.90;54.50;;;;;;4972378;28;20541;-58
2021/04/10 10:35:15;;;;;;;1.97;1.17;;;18.20;54.20;;;;;;4964708;28;20434;-58
2021/04/10 10:37:45;;;;;;;3.10;1.20;;;18.50;53.60;;;;;;4965690;28;20462;-59
2021/04/10 10:40:19;;;;;;;3.30;1.57;;;18.60;53.50;;;;;;4967856;28;20533;-58
2021/04/10 10:42:57;;;;;;;2.77;1.40;;;18.40;53.70;;;;;;4971532;28;20517;-57
2021/04/10 10:45:39;;;;;;;2.60;1.50;;;18.30;54.00;;;;;;4971667;28;20506;-58
2021/04/10 10:48:19;;;;;;;5.30;1.40;;;18.30;54.10;;;;;;4971989;28;20442;-59
2021/04/10 10:50:47;;;;;;;4.00;1.50;;;18.20;54.30;;;;;;4966594;28;20434;-59
2021/04/10 10:53:16;;;;;;;3.90;1.57;;;18.10;54.50;;;;;;4967174;28;20450;-58
2021/04/10 10:55:56;;;;;;;3.50;1.37;;;18.00;54.50;;;;;;4957195;28;20497;-59
2021/04/10 10:58:23;;;;;;;1.60;1.50;;;18.00;54.60;;;;;;4955880;28;20413;-59
2021/04/10 11:00:50;;;;;;;2.00;1.27;;;18.20;54.50;;;;;;4955920;28;20470;-59
2021/04/10 11:03:21;;;;;;;1.37;1.27;;;18.40;54.10;;;;;;4955764;28;20496;-58
2021/04/10 11:05:49;;;;;;;4.47;1.40;;;18.40;53.90;;;;;;4955704;28;20542;-58
2021/04/10 11:08:17;;;;;;;6.30;1.50;;;18.30;54.10;;;;;;4956136;28;20473;-58
2021/04/10 11:10:44;;;;;;;3.17;1.23;;;18.50;54.20;;;;;;4958567;28;20517;-59
2021/04/10 11:13:11;;;;;;;3.00;1.70;;;19.00;53.20;;;;;;4964398;28;20539;-58
2021/04/10 11:15:38;;;;;;;2.50;1.83;;;19.30;52.40;;;;;;4964283;28;20447;-58
2021/04/10 11:18:05;;;;;;;3.90;1.40;;;19.00;52.70;;;;;;4966566;28;20463;-56
2021/04/10 11:20:34;;;;;;;3.27;1.20;;;18.70;53.30;;;;;;4964990;28;20470;-56
2021/04/10 11:23:04;;;;;;;4.30;1.30;;;18.40;53.90;;;;;;4974704;28;20517;-56
2021/04/10 11:25:49;;;;;;;9.13;1.50;;;18.20;54.40;;;;;;4971410;28;20568;-67
2021/04/10 11:28:29;;;;;;;3.73;1.30;;;17.90;54.90;;;;;;4970909;28;20424;-65
2021/04/10 11:31:03;;;;;;;2.80;1.47;;;17.80;55.20;;;;;;4968215;28;20447;-67
2021/04/10 11:33:31;;;;;;;2.00;1.57;;;17.80;55.20;;;;;;4963111;28;20552;-67
2021/04/10 11:35:59;;;;;;;1.93;1.27;;;17.80;55.30;;;;;;4965692;28;20457;-66
2021/04/10 11:38:26;;;;;;;2.30;1.40;;;17.80;55.20;;;;;;4965523;28;20534;-67
2021/04/10 11:40:53;;;;;;;2.40;1.40;;;18.00;55.00;;;;;;4964466;28;20453;-66
2021/04/10 11:43:20;;;;;;;2.30;1.33;;;18.00;54.70;;;;;;4965284;28;20470;-59
2021/04/10 11:45:49;;;;;;;6.33;1.27;;;18.10;54.60;;;;;;4971015;28;20473;-59
2021/04/10 11:48:17;;;;;;;2.73;1.37;;;18.10;54.30;;;;;;4969906;28;20514;-66
2021/04/10 11:50:48;;;;;;;4.80;1.60;;;18.40;54.00;;;;;;4968015;28;20533;-66
2021/04/10 11:53:20;;;;;;;4.30;1.40;;;18.90;53.20;;;;;;4966077;28;20474;-67
2021/04/10 11:55:47;;;;;;;1.93;1.33;;;19.10;52.90;;;;;;4964695;28;20428;-68
2021/04/10 11:58:14;;;;;;;2.87;1.50;;;19.60;52.00;;;;;;4965249;28;20519;-59
2021/04/10 12:00:41;;;;;;;2.33;1.33;;;20.90;49.40;;;;;;4964187;28;20487;-59
2021/04/10 12:03:09;;;;;;;3.27;1.57;;;20.30;49.70;;;;;;4963399;28;20508;-59
2021/04/10 12:05:38;;;;;;;1.30;1.20;;;19.70;51.00;;;;;;4967221;28;20506;-57
2021/04/10 12:08:07;;;;;;;1.40;1.30;;;19.30;51.80;;;;;;4963889;28;20492;-59
2021/04/10 12:10:36;;;;;;;3.53;1.63;;;19.00;52.10;;;;;;4961753;28;20494;-58
2021/04/10 12:13:03;;;;;;;1.87;1.30;;;18.80;52.60;;;;;;4969863;28;20454;-58
2021/04/10 12:15:31;;;;;;;2.43;1.60;;;18.60;53.00;;;;;;4967856;28;20529;-58
2021/04/10 12:17:59;;;;;;;1.50;1.20;;;18.60;53.30;;;;;;4965072;28;20457;-58
2021/04/10 12:20:25;;;;;;;1.53;1.10;;;18.80;53.10;;;;;;4963462;28;20532;-57
2021/04/10 12:22:52;;;;;;;3.63;1.40;;;19.50;52.10;;;;;;4961502;28;20543;-58
2021/04/10 12:25:19;;;;;;;2.30;1.60;;;20.20;50.60;;;;;;4963057;28;20470;-58
2021/04/10 12:27:47;;;;;;;2.20;1.40;;;21.40;48.60;;;;;;4961533;28;20409;-57
2021/04/10 12:30:15;;;;;;;2.13;1.17;;;21.00;48.60;;;;;;4962045;28;20471;-57
2021/04/10 12:32:42;;;;;;;1.67;1.50;;;20.30;49.80;;;;;;4962996;28;20500;-57
2021/04/10 12:35:10;;;;;;;3.73;1.70;;;19.80;50.70;;;;;;4963608;28;20444;-58
2021/04/10 12:37:37;;;;;;;2.80;1.40;;;19.30;51.70;;;;;;4963755;28;20410;-57
2021/04/10 12:40:06;;;;;;;4.37;1.80;;;19.10;52.20;;;;;;4963220;28;20659;-57
2021/04/10 12:42:32;;;;;;;2.33;1.37;;;19.10;52.50;;;;;;4961759;28;20507;-56
2021/04/10 12:45:06;;;;;;;3.60;1.50;;;20.40;50.80;;;;;;4962069;28;20495;-57
2021/04/10 12:47:33;;;;;;;2.53;1.30;;;21.10;48.80;;;;;;4966115;28;20409;-56
2021/04/10 12:50:00;;;;;;;1.90;1.23;;;21.10;48.40;;;;;;4971018;28;20446;-57
2021/04/10 12:52:27;;;;;;;4.30;1.50;;;20.90;48.70;;;;;;4973890;28;20441;-57
2021/04/10 12:54:54;;;;;;;2.77;1.40;;;20.20;49.80;;;;;;4964495;28;20463;-56